Weather at Dallas Fort Worth International Airport

Public forecast

Using degrees Fahrenheit for public forecast. Weather courtesy of forecast.io.

Current aviation weather report (METAR) for Dallas Fort Worth International Airport

Retrieved 2022/05/23 08:53 UTC (18 minutes ago):

KDFW 230853Z 03007KT 4SM -DZ BR BKN004 OVC010 16/15 A3009 RMK AO2 SLP185 P0001 60003 T01610150 58009

Aviation forecast (TAF) for Dallas Fort Worth International Airport

Retrieved 2022/05/23 06:45 UTC (2 hours ago):

TAF KDFW 230542Z 2306/2412 05008KT P6SM OVC015 FM230800 06007KT P6SM OVC008 FM231500 10009KT P6SM OVC014 FM231900 11008KT P6SM BKN040 FM232100 11012KT P6SM BKN050 FM240400 11009KT P6SM VCTS BKN080CB